createdAt,value
2023-03-05T00:01:40.835Z,3.00
2023-03-05T00:05:44.097Z,2.90
2023-03-05T00:09:48.596Z,2.80
2023-03-05T00:13:53.876Z,2.70
2023-03-05T00:17:59.318Z,2.70
2023-03-05T00:22:04.564Z,2.70
2023-03-05T00:26:12.738Z,2.70
2023-03-05T00:30:16.180Z,2.70
2023-03-05T00:34:20.692Z,2.80
2023-03-05T00:38:23.940Z,2.80
2023-03-05T00:42:28.445Z,2.80
2023-03-05T00:46:32.119Z,2.80
2023-03-05T00:50:38.325Z,2.90
2023-03-05T00:54:43.771Z,2.90
2023-03-05T00:58:50.479Z,2.90
2023-03-05T01:02:54.923Z,2.90
2023-03-05T01:06:58.678Z,2.90
2023-03-05T01:11:06.583Z,3.00
2023-03-05T01:15:14.406Z,3.00
2023-03-05T01:19:21.233Z,2.90
2023-03-05T01:23:28.544Z,2.90
2023-03-05T01:27:31.694Z,2.90
2023-03-05T01:31:36.276Z,2.90
2023-03-05T01:35:47.982Z,2.90
2023-03-05T01:40:02.155Z,2.90
2023-03-05T01:44:07.249Z,2.90
2023-03-05T01:48:11.696Z,3.00
2023-03-05T01:52:21.049Z,3.00
2023-03-05T01:56:27.633Z,3.00
2023-03-05T02:00:33.120Z,2.90
2023-03-05T02:04:44.357Z,2.80
2023-03-05T02:08:49.455Z,2.80
2023-03-05T02:12:54.503Z,2.80
2023-03-05T02:16:57.535Z,2.80
2023-03-05T02:21:07.892Z,2.80
2023-03-05T02:25:19.392Z,2.80
2023-03-05T02:29:23.235Z,2.80
2023-03-05T02:33:29.476Z,2.80
2023-03-05T02:37:36.726Z,2.80
2023-03-05T02:41:44.564Z,2.80
2023-03-05T02:45:47.652Z,2.80
2023-03-05T02:49:52.505Z,2.80
2023-03-05T02:54:02.589Z,2.80
2023-03-05T02:58:05.646Z,2.80
2023-03-05T03:02:08.878Z,2.80
2023-03-05T03:06:15.157Z,2.80
2023-03-05T03:10:23.576Z,2.80
2023-03-05T03:14:26.616Z,2.90
2023-03-05T03:18:29.657Z,2.90
2023-03-05T03:22:35.287Z,2.90
2023-03-05T03:26:39.753Z,2.90
2023-03-05T03:30:47.375Z,3.00
2023-03-05T03:34:50.379Z,3.00
2023-03-05T03:38:53.385Z,3.00
2023-03-05T03:42:59.950Z,3.00
2023-03-05T03:47:05.708Z,3.00
2023-03-05T03:51:09.479Z,3.00
2023-03-05T03:55:15.780Z,3.00
2023-03-05T03:59:22.581Z,3.00
2023-03-05T04:03:26.253Z,3.00
2023-03-05T04:07:29.804Z,3.00
2023-03-05T04:11:35.616Z,3.00
2023-03-05T04:15:42.852Z,3.00
2023-03-05T04:19:46.275Z,3.00
2023-03-05T04:23:49.506Z,3.00
2023-03-05T04:27:56.062Z,3.10
2023-03-05T04:32:00.743Z,3.10
2023-03-05T04:36:03.842Z,3.10
2023-03-05T04:40:11.054Z,3.10
2023-03-05T04:44:17.836Z,3.10
2023-03-05T04:48:24.513Z,3.10
2023-03-05T04:52:28.003Z,3.10
2023-03-05T04:56:37.977Z,3.10
2023-03-05T05:00:41.191Z,3.10
2023-03-05T05:05:01.205Z,3.10
2023-03-05T05:09:04.395Z,3.10
2023-03-05T05:13:07.713Z,3.10
2023-03-05T05:17:12.997Z,3.00
2023-03-05T05:21:20.451Z,3.10
2023-03-05T05:25:31.629Z,3.00
2023-03-05T05:29:39.312Z,3.00
2023-03-05T05:33:42.750Z,3.00
2023-03-05T05:37:50.319Z,3.00
2023-03-05T05:41:57.316Z,3.00
2023-03-05T05:46:02.276Z,3.00
2023-03-05T05:50:07.872Z,3.00
2023-03-05T05:54:15.012Z,3.00
2023-03-05T05:58:22.357Z,3.00
2023-03-05T06:02:30.556Z,3.10
2023-03-05T06:06:35.114Z,3.10
2023-03-05T06:10:42.481Z,3.10
2023-03-05T06:14:46.631Z,3.20
2023-03-05T06:18:49.986Z,3.20
2023-03-05T06:22:53.078Z,3.30
2023-03-05T06:26:59.035Z,3.40
2023-03-05T06:31:03.054Z,3.40
2023-03-05T06:35:07.031Z,3.50
2023-03-05T06:39:11.087Z,3.50
2023-03-05T06:43:18.582Z,3.60
2023-03-05T06:47:23.917Z,3.60
2023-03-05T06:51:29.180Z,3.60
2023-03-05T06:55:39.639Z,3.60
2023-03-05T06:59:48.667Z,3.60
2023-03-05T07:03:55.742Z,3.60
2023-03-05T07:08:01.643Z,3.60
2023-03-05T07:12:05.388Z,3.80
2023-03-05T07:16:12.426Z,3.80
2023-03-05T07:20:16.019Z,3.80
2023-03-05T07:24:25.049Z,3.90
2023-03-05T07:28:28.361Z,4.00
2023-03-05T07:32:36.758Z,4.00
2023-03-05T07:36:40.628Z,4.10
2023-03-05T07:40:43.993Z,4.20
2023-03-05T07:44:47.144Z,4.10
2023-03-05T07:48:55.698Z,4.20
2023-03-05T07:52:59.780Z,4.30
2023-03-05T07:57:04.956Z,4.40
2023-03-05T08:01:15.688Z,4.30
2023-03-05T08:05:20.564Z,4.40
2023-03-05T08:09:23.792Z,4.40
2023-03-05T08:13:28.027Z,4.40
2023-03-05T08:17:31.119Z,4.40
2023-03-05T08:21:37.148Z,4.40
2023-03-05T08:25:40.331Z,4.30
2023-03-05T08:29:46.353Z,4.30
2023-03-05T08:33:49.909Z,4.40
2023-03-05T08:38:08.476Z,4.50
2023-03-05T08:42:16.444Z,4.70
2023-03-05T08:46:22.705Z,4.90
2023-03-05T08:50:26.135Z,5.10
2023-03-05T08:54:32.853Z,5.30
2023-03-05T08:58:35.928Z,5.40
2023-03-05T09:02:44.544Z,5.50
2023-03-05T09:06:47.784Z,5.50
2023-03-05T09:10:52.249Z,5.50
2023-03-05T09:14:56.328Z,5.40
2023-03-05T09:19:05.573Z,5.40
2023-03-05T09:23:11.673Z,5.50
2023-03-05T09:27:23.033Z,5.40
2023-03-05T09:31:26.178Z,5.20
2023-03-05T09:35:31.747Z,5.10
2023-03-05T09:39:36.295Z,5.00
2023-03-05T09:43:52.760Z,4.90
2023-03-05T09:48:05.635Z,4.80
2023-03-05T09:52:16.596Z,4.80
2023-03-05T09:56:29.027Z,4.70
2023-03-05T10:00:37.513Z,4.70
2023-03-05T10:04:46.219Z,4.60
2023-03-05T10:08:55.599Z,4.60
2023-03-05T10:13:02.589Z,4.70
2023-03-05T10:17:52.908Z,4.70
2023-03-05T10:22:12.463Z,4.70
2023-03-05T10:26:23.613Z,4.70
2023-03-05T10:30:40.656Z,4.70
2023-03-05T10:35:21.427Z,4.60
2023-03-05T10:39:48.084Z,4.60
2023-03-05T10:43:59.006Z,4.60
2023-03-05T10:48:09.102Z,4.60
2023-03-05T10:52:18.957Z,4.60
2023-03-05T10:56:26.209Z,4.70
2023-03-05T11:00:29.915Z,4.70
2023-03-05T11:04:37.310Z,4.80
2023-03-05T11:08:40.860Z,4.80
2023-03-05T11:12:46.403Z,4.90
2023-03-05T11:16:51.173Z,5.00
2023-03-05T11:21:10.562Z,5.10
2023-03-05T11:25:21.235Z,5.10
2023-03-05T11:29:27.678Z,5.20
2023-03-05T11:33:31.713Z,5.20
2023-03-05T11:37:35.403Z,5.20
2023-03-05T11:41:41.258Z,5.20
2023-03-05T11:45:49.568Z,5.20
2023-03-05T11:49:58.398Z,5.10
2023-03-05T11:54:09.068Z,5.10
2023-03-05T11:58:27.047Z,5.10
2023-03-05T12:02:31.514Z,5.10
2023-03-05T12:06:37.382Z,5.10
2023-03-05T12:10:41.863Z,5.10
2023-03-05T12:14:52.427Z,5.10
2023-03-05T12:19:08.129Z,5.00
2023-03-05T12:23:15.960Z,4.90
2023-03-05T12:27:35.468Z,4.80
2023-03-05T12:31:40.515Z,4.70
2023-03-05T12:35:45.282Z,4.60
2023-03-05T12:39:58.997Z,4.50
2023-03-05T12:44:23.695Z,4.50
2023-03-05T12:48:48.304Z,4.40
2023-03-05T12:52:53.599Z,4.40
2023-03-05T12:56:58.263Z,4.40
2023-03-05T13:01:05.315Z,4.50
2023-03-05T13:05:22.999Z,4.50
2023-03-05T13:09:30.003Z,4.50
2023-03-05T13:13:41.664Z,4.60
2023-03-05T13:17:54.036Z,4.60
2023-03-05T13:22:05.122Z,4.70
2023-03-05T13:26:15.624Z,4.80
2023-03-05T13:30:27.130Z,4.80
2023-03-05T13:34:44.474Z,4.90
2023-03-05T13:38:55.815Z,4.90
2023-03-05T13:43:13.688Z,5.10
2023-03-05T13:47:19.224Z,5.10
2023-03-05T13:51:28.857Z,5.20
2023-03-05T13:55:34.317Z,5.40
2023-03-05T13:59:40.053Z,5.50
2023-03-05T14:03:43.176Z,5.50
2023-03-05T14:07:49.648Z,5.40
2023-03-05T14:12:01.848Z,5.30
2023-03-05T14:16:09.137Z,5.20
2023-03-05T14:20:27.484Z,5.20
2023-03-05T14:24:33.141Z,5.30
2023-03-05T14:28:37.297Z,5.30
2023-03-05T14:32:45.973Z,5.30
2023-03-05T14:36:51.758Z,5.40
2023-03-05T14:40:57.326Z,5.50
2023-03-05T14:45:03.271Z,5.60
2023-03-05T14:49:07.872Z,5.50
2023-03-05T14:53:15.362Z,5.50
2023-03-05T14:57:23.085Z,5.50
2023-03-05T15:01:26.335Z,5.50
2023-03-05T15:05:31.224Z,5.50
2023-03-05T15:09:37.817Z,5.50
2023-03-05T15:13:42.976Z,5.40
2023-03-05T15:17:48.904Z,5.40
2023-03-05T15:21:53.464Z,5.30
2023-03-05T15:25:56.723Z,5.30
2023-03-05T15:30:04.515Z,5.20
2023-03-05T15:34:07.944Z,5.20
2023-03-05T15:38:12.412Z,5.20
2023-03-05T15:42:17.852Z,5.10
2023-03-05T15:46:20.977Z,5.00
2023-03-05T15:50:24.540Z,4.90
2023-03-05T15:54:29.447Z,4.80
2023-03-05T15:58:32.832Z,4.80
2023-03-05T16:02:36.218Z,4.90
2023-03-05T16:06:39.263Z,4.90
2023-03-05T16:10:46.632Z,4.90
2023-03-05T16:14:53.459Z,4.90
2023-03-05T16:18:57.680Z,4.80
2023-03-05T16:23:01.010Z,4.80
2023-03-05T16:27:06.288Z,4.70
2023-03-05T16:31:09.376Z,4.60
2023-03-05T16:35:13.231Z,4.60
2023-03-05T16:39:18.480Z,4.50
2023-03-05T16:43:22.964Z,4.50
2023-03-05T16:47:26.323Z,4.40
2023-03-05T16:51:32.885Z,4.40
2023-03-05T16:55:37.794Z,4.50
2023-03-05T16:59:45.269Z,4.40
2023-03-05T17:03:48.887Z,4.40
2023-03-05T17:07:55.737Z,4.40
2023-03-05T17:12:01.412Z,4.40
2023-03-05T17:16:07.228Z,4.40
2023-03-05T17:20:13.218Z,4.30
2023-03-05T17:24:21.448Z,4.30
2023-03-05T17:28:28.069Z,4.30
2023-03-05T17:32:35.521Z,4.20
2023-03-05T17:36:40.484Z,4.10
2023-03-05T17:40:43.924Z,4.10
2023-03-05T17:44:46.933Z,4.00
2023-03-05T17:48:51.351Z,4.00
2023-03-05T17:52:56.248Z,4.00
2023-03-05T17:56:59.410Z,3.90
2023-03-05T18:01:02.767Z,3.80
2023-03-05T18:05:09.205Z,3.80
2023-03-05T18:09:15.680Z,3.80
2023-03-05T18:13:18.816Z,3.80
2023-03-05T18:17:22.838Z,3.80
2023-03-05T18:21:28.262Z,3.80
2023-03-05T18:25:34.086Z,3.80
2023-03-05T18:29:39.403Z,3.80
2023-03-05T18:33:44.154Z,3.80
2023-03-05T18:37:51.680Z,3.80
2023-03-05T18:41:56.465Z,3.90
2023-03-05T18:45:59.722Z,3.80
2023-03-05T18:50:03.213Z,3.70
2023-03-05T18:54:08.805Z,3.70
2023-03-05T18:58:14.299Z,3.70
2023-03-05T19:02:17.852Z,3.70
2023-03-05T19:06:21.124Z,3.70
2023-03-05T19:10:26.088Z,3.70
2023-03-05T19:14:38.616Z,3.70
2023-03-05T19:19:06.402Z,3.70
2023-03-05T19:23:09.580Z,3.70
2023-03-05T19:27:14.334Z,3.70
2023-03-05T19:31:17.757Z,3.60
2023-03-05T19:35:22.521Z,3.60
2023-03-05T19:39:29.287Z,3.60
2023-03-05T19:43:35.886Z,3.70
2023-03-05T19:47:38.949Z,3.60
2023-03-05T19:51:46.345Z,3.70
2023-03-05T19:55:49.410Z,3.70
2023-03-05T19:59:54.845Z,3.70
2023-03-05T20:03:59.762Z,3.60
2023-03-05T20:08:07.421Z,3.60
2023-03-05T20:12:10.621Z,3.60
2023-03-05T20:16:22.591Z,3.60
2023-03-05T20:20:26.954Z,3.60
2023-03-05T20:24:32.671Z,3.50
2023-03-05T20:28:36.144Z,3.50
2023-03-05T20:32:41.007Z,3.50
2023-03-05T20:36:45.938Z,3.50
2023-03-05T20:40:49.573Z,3.50
2023-03-05T20:44:52.623Z,3.50
2023-03-05T20:49:01.946Z,3.50
2023-03-05T20:53:07.167Z,3.50
2023-03-05T20:57:10.538Z,3.50
2023-03-05T21:01:15.352Z,3.50
2023-03-05T21:05:22.115Z,3.50
2023-03-05T21:09:29.200Z,3.50
2023-03-05T21:13:34.299Z,3.40
2023-03-05T21:17:37.671Z,3.40
2023-03-05T21:21:45.714Z,3.40
2023-03-05T21:25:52.262Z,3.40
2023-03-05T21:29:56.634Z,3.40
2023-03-05T21:33:59.933Z,3.40
2023-03-05T21:38:08.752Z,3.40
2023-03-05T21:42:11.929Z,3.40
2023-03-05T21:46:19.089Z,3.40
2023-03-05T21:50:22.944Z,3.40
2023-03-05T21:54:29.910Z,3.40
2023-03-05T21:58:35.696Z,3.40
2023-03-05T22:02:39.106Z,3.40
2023-03-05T22:06:44.186Z,3.40
2023-03-05T22:10:59.179Z,3.40
2023-03-05T22:15:02.324Z,3.40
2023-03-05T22:19:07.777Z,3.40
2023-03-05T22:23:11.449Z,3.30
2023-03-05T22:27:15.853Z,3.30
2023-03-05T22:31:30.753Z,3.30
2023-03-05T22:35:36.521Z,3.30
2023-03-05T22:39:41.342Z,3.30
2023-03-05T22:43:53.380Z,3.30
2023-03-05T22:47:59.485Z,3.30
2023-03-05T22:52:04.203Z,3.30
2023-03-05T22:56:08.488Z,3.30
2023-03-05T23:00:18.343Z,3.30
2023-03-05T23:04:53.284Z,3.30
2023-03-05T23:08:56.647Z,3.30
2023-03-05T23:13:09.250Z,3.30
2023-03-05T23:17:13.821Z,3.30
2023-03-05T23:21:16.986Z,3.30
2023-03-05T23:25:21.489Z,3.30
2023-03-05T23:29:44.544Z,3.30
2023-03-05T23:33:52.180Z,3.30
2023-03-05T23:37:56.737Z,3.20
2023-03-05T23:42:02.791Z,3.20
2023-03-05T23:46:12.239Z,3.20
2023-03-05T23:50:19.516Z,3.20
2023-03-05T23:54:24.613Z,3.20
2023-03-05T23:58:34.336Z,3.10
